Time;durP1;ratioP1;P1;durP2;ratioP2;P2;SDS_P1;SDS_P2;PMS_P1;PMS_P2;Temp;Humidity;BMP_temperature;BMP_pressure;BME280_temperature;BME280_humidity;BME280_pressure;Samples;Min_cycle;Max_cycle;Signal;HPM_P1;HPM_P2
2022/09/22 00:00:59;;;;;;;4.22;2.70;;;;;;;9.16;99.80;100891.63;5570418;32;33886;-67
2022/09/22 00:04:08;;;;;;;3.40;2.80;;;;;;;9.18;100.00;100892.31;5570327;32;34350;-67
2022/09/22 00:07:11;;;;;;;4.05;2.95;;;;;;;9.11;100.00;100889.41;5570681;32;34753;-67
2022/09/22 00:10:14;;;;;;;4.55;2.78;;;;;;;9.05;100.00;100889.19;5570295;32;34649;-67
2022/09/22 00:13:16;;;;;;;4.55;2.80;;;;;;;8.97;100.00;100887.25;5570390;32;34336;-68
2022/09/22 00:16:24;;;;;;;3.62;2.70;;;;;;;9.10;100.00;100884.28;5570374;32;34262;-67
2022/09/22 00:19:29;;;;;;;5.95;3.55;;;;;;;9.09;100.00;100882.62;5570260;32;34621;-68
2022/09/22 00:22:32;;;;;;;3.50;2.87;;;;;;;9.09;100.00;100883.47;5570315;32;34257;-67
2022/09/22 00:25:39;;;;;;;5.80;3.20;;;;;;;9.03;100.00;100880.53;5556499;32;34061;-67
2022/09/22 00:28:44;;;;;;;4.35;2.97;;;;;;;8.96;100.00;100879.44;5570048;32;33846;-67
2022/09/22 00:31:46;;;;;;;4.20;2.97;;;;;;;8.89;100.00;100881.84;5570068;32;33948;-67
2022/09/22 00:34:49;;;;;;;4.87;3.42;;;;;;;8.78;100.00;100889.97;5570137;32;35391;-66
2022/09/22 00:37:52;;;;;;;4.70;3.00;;;;;;;8.76;100.00;100883.16;5570093;32;33459;-67
2022/09/22 00:40:55;;;;;;;6.22;3.28;;;;;;;8.70;100.00;100879.28;5570259;32;34632;-67
2022/09/22 00:44:25;;;;;;;5.80;3.35;;;;;;;8.63;100.00;100875.53;5570313;32;34583;-66
2022/09/22 00:47:44;;;;;;;4.93;3.60;;;;;;;8.56;100.00;100875.28;5570066;32;35111;-67
2022/09/22 00:50:50;;;;;;;4.65;3.33;;;;;;;8.58;100.00;100878.59;5569271;32;33559;-67
2022/09/22 00:53:56;;;;;;;5.70;3.60;;;;;;;8.58;100.00;100869.81;5569914;32;34018;-67
2022/09/22 00:57:06;;;;;;;5.82;3.80;;;;;;;8.55;100.00;100864.84;5569894;32;33659;-67
2022/09/22 01:00:10;;;;;;;6.97;3.90;;;;;;;8.49;100.00;100863.59;5570203;32;34537;-67
2022/09/22 01:03:18;;;;;;;4.60;3.50;;;;;;;8.45;100.00;100862.22;5569851;32;34752;-67
2022/09/22 01:06:26;;;;;;;4.10;3.30;;;;;;;8.45;100.00;100856.09;5555670;32;34192;-67
2022/09/22 01:09:31;;;;;;;5.87;3.80;;;;;;;8.42;100.00;100859.88;5569718;32;34657;-66
2022/09/22 01:12:36;;;;;;;6.60;3.78;;;;;;;8.31;100.00;100856.53;5555774;32;32350;-67
2022/09/22 01:15:53;;;;;;;5.78;3.87;;;;;;;8.23;100.00;100855.38;5569720;32;33932;-67
2022/09/22 01:19:02;;;;;;;5.90;3.70;;;;;;;8.23;100.00;100847.44;5570200;32;34018;-67
2022/09/22 01:22:11;;;;;;;4.40;3.55;;;;;;;8.15;100.00;100846.50;5569736;32;33988;-67
2022/09/22 01:25:17;;;;;;;7.22;3.58;;;;;;;8.17;100.00;100858.62;5569981;32;34654;-67
2022/09/22 01:28:29;;;;;;;3.80;3.40;;;;;;;8.15;100.00;100849.97;5569435;32;34660;-67
2022/09/22 01:32:00;;;;;;;5.10;4.00;;;;;;;8.23;100.00;100850.09;5555503;32;32958;-67
2022/09/22 01:35:15;;;;;;;5.03;4.00;;;;;;;8.22;100.00;100842.31;5569594;32;34859;-67
2022/09/22 01:38:30;;;;;;;4.60;3.50;;;;;;;8.16;100.00;100842.88;5569431;32;34268;-67
2022/09/22 01:41:36;;;;;;;5.22;3.65;;;;;;;8.05;100.00;100843.84;5569507;32;34656;-67
2022/09/22 01:44:59;;;;;;;5.85;4.25;;;;;;;8.02;100.00;100845.97;5555797;32;34139;-67
2022/09/22 01:48:25;;;;;;;6.03;3.90;;;;;;;7.99;100.00;100859.47;5555838;32;34082;-67
2022/09/22 01:51:42;;;;;;;5.55;3.80;;;;;;;8.15;100.00;100854.41;5569386;32;34697;-67
2022/09/22 01:54:52;;;;;;;5.57;3.95;;;;;;;8.19;100.00;100856.63;5569429;32;33962;-67
2022/09/22 01:58:03;;;;;;;7.70;4.15;;;;;;;8.16;100.00;100842.88;5569377;32;34016;-67
2022/09/22 02:01:10;;;;;;;5.57;3.85;;;;;;;8.05;100.00;100851.78;5569100;32;34541;-67
2022/09/22 02:04:28;;;;;;;5.65;4.25;;;;;;;8.13;100.00;100843.19;5569508;32;33964;-67
2022/09/22 02:07:47;;;;;;;6.95;4.05;;;;;;;8.05;100.00;100841.22;5569578;32;34361;-67
2022/09/22 02:10:52;;;;;;;6.62;4.28;;;;;;;8.02;100.00;100845.97;5569423;32;34090;-67
2022/09/22 02:13:55;;;;;;;4.65;4.07;;;;;;;8.01;100.00;100844.28;5569227;32;34733;-67
2022/09/22 02:16:59;;;;;;;5.93;4.43;;;;;;;7.94;100.00;100844.00;5555619;32;34198;-67
2022/09/22 02:20:05;;;;;;;7.53;4.62;;;;;;;7.88;100.00;100855.16;5568886;32;34291;-67
2022/09/22 02:23:08;;;;;;;6.68;4.82;;;;;;;7.84;100.00;100851.13;5569095;32;34035;-68
2022/09/22 02:26:22;;;;;;;6.62;5.10;;;;;;;7.76;100.00;100854.44;5555215;32;32574;-67
2022/09/22 02:29:29;;;;;;;7.15;4.85;;;;;;;7.77;100.00;100848.19;5568929;32;35259;-66
2022/09/22 02:32:34;;;;;;;8.00;4.60;;;;;;;7.75;100.00;100860.69;5568767;32;34706;-67
2022/09/22 02:35:39;;;;;;;5.82;4.55;;;;;;;7.72;100.00;100857.50;5568741;32;33920;-67
2022/09/22 02:39:05;;;;;;;5.87;4.93;;;;;;;7.69;100.00;100865.69;5555085;32;32743;-67
2022/09/22 02:42:23;;;;;;;9.00;5.30;;;;;;;7.65;100.00;100864.31;5568605;32;34841;-67
2022/09/22 02:45:29;;;;;;;6.62;4.80;;;;;;;7.63;100.00;100863.59;5568476;32;33885;-67
2022/09/22 02:48:45;;;;;;;7.57;4.95;;;;;;;7.60;100.00;100856.75;5568611;32;34592;-66
2022/09/22 02:51:48;;;;;;;7.32;4.82;;;;;;;7.56;100.00;100850.09;5568522;32;33876;-67
2022/09/22 02:54:53;;;;;;;5.82;4.68;;;;;;;7.65;100.00;100854.53;5555038;32;34510;-67
2022/09/22 02:57:55;;;;;;;6.35;4.57;;;;;;;7.63;100.00;100851.22;5568827;32;35153;-66
2022/09/22 03:00:59;;;;;;;10.82;5.07;;;;;;;7.60;100.00;100848.84;5568422;32;34087;-66
2022/09/22 03:04:03;;;;;;;7.07;4.70;;;;;;;7.58;100.00;100842.88;5568381;32;34652;-66
2022/09/22 03:07:06;;;;;;;7.62;4.70;;;;;;;7.48;100.00;100849.12;5554839;32;34645;-66
2022/09/22 03:10:09;;;;;;;5.85;4.72;;;;;;;7.42;100.00;100840.78;5568343;32;33992;-67
2022/09/22 03:13:12;;;;;;;7.47;4.55;;;;;;;7.35;100.00;100844.94;5555039;32;34116;-66
2022/09/22 03:16:18;;;;;;;5.95;4.68;;;;;;;7.31;100.00;100845.34;5570802;32;34896;-66
2022/09/22 03:19:21;;;;;;;6.95;4.90;;;;;;;7.33;100.00;100846.03;5570723;32;34454;-66
2022/09/22 03:22:24;;;;;;;6.57;4.20;;;;;;;7.31;100.00;100840.87;5570698;32;33942;-66
2022/09/22 03:25:26;;;;;;;7.47;5.37;;;;;;;7.16;100.00;100839.63;5570721;32;33927;-66
2022/09/22 03:28:29;;;;;;;7.28;4.65;;;;;;;7.21;100.00;100839.22;5570663;32;34012;-66
2022/09/22 03:31:32;;;;;;;8.60;5.32;;;;;;;7.29;100.00;100836.72;5543534;32;32557;-66
2022/09/22 03:34:35;;;;;;;6.00;4.72;;;;;;;7.29;100.00;100831.44;5570442;32;33920;-66
2022/09/22 03:37:40;;;;;;;5.28;4.50;;;;;;;7.26;100.00;100831.72;5570598;32;34240;-65
2022/09/22 03:40:49;;;;;;;6.90;4.90;;;;;;;7.11;100.00;100830.44;5570477;32;33904;-66
2022/09/22 03:43:52;;;;;;;6.10;4.75;;;;;;;6.98;100.00;100842.03;5570440;32;34258;-66
2022/09/22 03:46:54;;;;;;;6.47;4.70;;;;;;;6.90;100.00;100831.31;5570467;32;33913;-66
2022/09/22 03:49:57;;;;;;;8.70;5.05;;;;;;;6.91;100.00;100834.81;5556892;32;32320;-66
2022/09/22 03:53:00;;;;;;;8.55;5.45;;;;;;;7.03;100.00;100833.72;5570479;32;34726;-66
2022/09/22 03:56:12;;;;;;;7.30;5.25;;;;;;;6.97;100.00;100831.62;5570331;32;34791;-66
2022/09/22 03:59:15;;;;;;;6.85;4.97;;;;;;;6.93;100.00;100835.50;5556583;32;33125;-66
2022/09/22 04:02:17;;;;;;;6.40;4.62;;;;;;;7.03;100.00;100835.53;5570263;32;33982;-66
2022/09/22 04:05:20;;;;;;;5.65;4.45;;;;;;;7.10;100.00;100837.50;5570497;32;34593;-68
2022/09/22 04:08:23;;;;;;;5.18;4.37;;;;;;;7.14;100.00;100844.19;5570310;32;34055;-66
2022/09/22 04:11:26;;;;;;;6.18;4.32;;;;;;;7.13;100.00;100831.09;5570225;32;34738;-66
2022/09/22 04:14:29;;;;;;;5.95;4.90;;;;;;;7.06;100.00;100830.84;5556369;32;32519;-66
2022/09/22 04:17:32;;;;;;;5.82;4.60;;;;;;;7.03;100.00;100831.09;5570279;32;34577;-66
2022/09/22 04:20:37;;;;;;;8.10;4.78;;;;;;;7.13;100.00;100824.03;5570073;32;35255;-66
2022/09/22 04:23:44;;;;;;;7.43;4.50;;;;;;;7.18;100.00;100827.09;5569910;32;34154;-66
2022/09/22 04:26:47;;;;;;;6.32;4.78;;;;;;;7.18;100.00;100835.03;5569518;32;33947;-66
2022/09/22 04:30:10;;;;;;;6.12;4.80;;;;;;;7.29;100.00;100842.84;5570176;32;34084;-66
2022/09/22 04:33:13;;;;;;;5.30;4.50;;;;;;;7.13;100.00;100839.03;5570888;32;33916;-65
2022/09/22 04:36:16;;;;;;;7.90;4.93;;;;;;;7.23;100.00;100847.81;5570761;32;34657;-66
2022/09/22 04:39:18;;;;;;;6.78;4.95;;;;;;;7.26;100.00;100853.63;5570677;32;33932;-66
2022/09/22 04:42:25;;;;;;;5.70;4.90;;;;;;;7.31;100.00;100858.53;5570531;32;34134;-66
2022/09/22 04:45:28;;;;;;;6.18;5.32;;;;;;;7.18;100.00;100856.12;5570236;32;34853;-67
2022/09/22 04:48:31;;;;;;;8.95;5.82;;;;;;;7.24;100.00;100854.75;5570448;32;34017;-67
2022/09/22 04:51:33;;;;;;;7.32;6.10;;;;;;;7.22;100.00;100846.97;5556959;32;34543;-66
2022/09/22 04:54:36;;;;;;;9.32;6.25;;;;;;;7.22;100.00;100846.97;5557053;32;34189;-67
2022/09/22 04:57:39;;;;;;;7.50;5.95;;;;;;;7.19;100.00;100851.69;5569828;32;34478;-66
2022/09/22 05:00:41;;;;;;;8.45;6.15;;;;;;;7.15;100.00;100851.13;5556580;32;33299;-66
2022/09/22 05:03:46;;;;;;;9.85;6.32;;;;;;;7.16;100.00;100846.69;5570723;32;34478;-67
2022/09/22 05:06:49;;;;;;;10.35;6.68;;;;;;;7.11;100.00;100848.91;5556481;32;34029;-66
2022/09/22 05:09:52;;;;;;;9.43;6.30;;;;;;;7.10;100.00;100852.50;5556668;32;34700;-67
2022/09/22 05:12:54;;;;;;;8.10;6.20;;;;;;;7.07;100.00;100850.94;5569968;32;33887;-67
2022/09/22 05:15:58;;;;;;;7.85;6.32;;;;;;;7.15;100.00;100848.50;5570551;32;34838;-67
2022/09/22 05:19:01;;;;;;;8.35;6.80;;;;;;;7.20;100.00;100854.19;5570322;32;34720;-67
2022/09/22 05:22:03;;;;;;;12.75;6.65;;;;;;;7.30;100.00;100848.94;5570340;32;35120;-66
2022/09/22 05:25:11;;;;;;;9.02;6.43;;;;;;;7.37;100.00;100844.78;5570227;32;34624;-66
2022/09/22 05:28:14;;;;;;;11.23;6.00;;;;;;;7.53;100.00;100844.25;5555500;32;32627;-65
2022/09/22 05:31:17;;;;;;;8.73;6.22;;;;;;;7.67;100.00;100849.12;5569825;32;34036;-66
2022/09/22 05:34:20;;;;;;;11.25;6.37;;;;;;;7.78;100.00;100854.31;5555563;32;32709;-66
2022/09/22 05:37:23;;;;;;;8.80;6.20;;;;;;;7.70;100.00;100851.50;5569168;32;34270;-66
2022/09/22 05:40:25;;;;;;;8.68;6.00;;;;;;;7.89;100.00;100853.34;5556204;32;32608;-67
2022/09/22 05:43:29;;;;;;;8.70;6.10;;;;;;;7.88;100.00;100857.78;5555760;32;33367;-66
2022/09/22 05:46:31;;;;;;;7.97;6.07;;;;;;;7.98;100.00;100863.91;5569889;32;34918;-66
2022/09/22 05:49:34;;;;;;;7.95;6.07;;;;;;;8.01;100.00;100849.56;5554530;32;34202;-67
2022/09/22 05:52:37;;;;;;;6.78;5.37;;;;;;;8.03;100.00;100853.75;5568568;32;34632;-67
2022/09/22 05:55:40;;;;;;;9.30;5.97;;;;;;;8.15;100.00;100857.91;5569252;32;34124;-67
2022/09/22 05:58:42;;;;;;;6.87;5.45;;;;;;;8.24;100.00;100854.41;5569351;32;34039;-67
2022/09/22 06:01:45;;;;;;;7.18;5.18;;;;;;;8.37;100.00;100864.75;5568934;32;35339;-67
2022/09/22 06:04:48;;;;;;;9.32;5.00;;;;;;;8.47;100.00;100854.16;5569505;32;34157;-67
2022/09/22 06:08:00;;;;;;;12.95;4.82;;;;;;;8.62;100.00;100864.09;5554944;32;32563;-67
2022/09/22 06:11:05;;;;;;;6.53;4.90;;;;;;;8.84;100.00;100860.28;5569634;32;34056;-67
2022/09/22 06:14:07;;;;;;;8.40;4.80;;;;;;;8.89;100.00;100860.69;5569303;32;33942;-67
2022/09/22 06:17:11;;;;;;;6.60;4.55;;;;;;;8.97;100.00;100868.72;5569573;32;34134;-67
2022/09/22 06:20:13;;;;;;;7.70;4.43;;;;;;;9.13;100.00;100874.25;5569056;32;33945;-68
2022/09/22 06:23:16;;;;;;;8.48;4.07;;;;;;;9.21;100.00;100877.94;5569301;32;34641;-68
2022/09/22 06:26:19;;;;;;;6.28;4.07;;;;;;;9.43;100.00;100870.47;5555600;32;34570;-67
2022/09/22 06:29:21;;;;;;;6.75;4.28;;;;;;;9.62;100.00;100863.38;5568843;32;33905;-68
2022/09/22 06:32:24;;;;;;;6.60;4.32;;;;;;;9.78;100.00;100864.34;5554073;32;34132;-68
2022/09/22 06:35:35;;;;;;;6.62;4.45;;;;;;;10.04;100.00;100869.75;5568567;32;34578;-68
2022/09/22 06:38:38;;;;;;;10.55;3.75;;;;;;;10.35;98.80;100868.38;5568289;32;34192;-68
2022/09/22 06:41:40;;;;;;;4.97;3.60;;;;;;;10.99;95.48;100866.28;5568548;32;34221;-68
2022/09/22 06:44:44;;;;;;;5.10;3.00;;;;;;;11.69;88.68;100865.03;5568165;32;34171;-68
2022/09/22 06:47:47;;;;;;;5.03;3.20;;;;;;;12.17;83.50;100864.28;5566669;32;34244;-68
2022/09/22 06:50:53;;;;;;;5.50;3.00;;;;;;;12.08;83.71;100862.62;5567906;32;33877;-68
2022/09/22 06:53:56;;;;;;;6.90;3.55;;;;;;;11.86;84.87;100866.75;5568003;32;33860;-68
2022/09/22 06:56:58;;;;;;;5.95;3.05;;;;;;;11.88;85.47;100861.28;5568010;32;34201;-67
2022/09/22 07:00:03;;;;;;;5.32;3.03;;;;;;;12.42;82.31;100867.78;5553961;32;35317;-68
2022/09/22 07:03:24;;;;;;;5.22;2.95;;;;;;;12.12;83.17;100872.75;5554259;32;34221;-68
2022/09/22 07:06:27;;;;;;;4.80;3.10;;;;;;;11.69;84.16;100873.84;5554332;32;33972;-68
2022/09/22 07:09:30;;;;;;;7.00;2.92;;;;;;;11.60;84.24;100863.34;5567440;32;33949;-67
2022/09/22 07:12:33;;;;;;;3.67;2.92;;;;;;;12.03;82.36;100868.44;5567565;32;34310;-68
2022/09/22 07:15:35;;;;;;;5.00;2.60;;;;;;;12.33;80.63;100856.31;5567613;32;33930;-67
2022/09/22 07:18:40;;;;;;;4.85;2.67;;;;;;;13.81;74.64;100856.44;5553938;32;34515;-67
2022/09/22 07:21:43;;;;;;;3.45;2.10;;;;;;;14.40;70.37;100851.34;5567735;32;33882;-68
2022/09/22 07:24:45;;;;;;;4.28;2.40;;;;;;;14.91;67.67;100855.81;5567450;32;34598;-68
2022/09/22 07:27:48;;;;;;;6.28;2.58;;;;;;;14.83;68.09;100860.41;5567310;32;35250;-68
2022/09/22 07:30:51;;;;;;;4.90;2.37;;;;;;;15.57;65.47;100872.72;5553165;32;32739;-68
2022/09/22 07:33:54;;;;;;;2.65;1.75;;;;;;;15.72;64.45;100868.19;5553403;32;34617;-67
2022/09/22 07:36:58;;;;;;;3.20;2.10;;;;;;;16.35;61.25;100875.38;5567283;32;33902;-68
2022/09/22 07:40:01;;;;;;;4.12;2.15;;;;;;;15.90;63.01;100873.09;5541090;32;33860;-68
2022/09/22 07:43:04;;;;;;;4.65;2.20;;;;;;;15.30;65.65;100878.75;5567372;32;34056;-68
2022/09/22 07:46:07;;;;;;;5.50;2.58;;;;;;;14.28;69.47;100882.94;5553548;32;33897;-68
2022/09/22 07:49:10;;;;;;;4.50;2.62;;;;;;;13.41;74.32;100879.66;5566955;32;34207;-67
2022/09/22 07:52:13;;;;;;;8.25;3.35;;;;;;;13.28;77.14;100879.38;5567150;32;34379;-68
2022/09/22 07:55:16;;;;;;;8.35;2.95;;;;;;;12.90;78.32;100886.31;5566881;32;33594;-66
2022/09/22 07:58:19;;;;;;;7.22;3.00;;;;;;;13.70;76.32;100889.66;5566938;32;34008;-68
2022/09/22 08:01:25;;;;;;;8.93;2.70;;;;;;;13.93;74.29;100882.53;5569488;32;33979;-67
2022/09/22 08:04:30;;;;;;;8.13;2.62;;;;;;;13.88;74.79;100887.56;5569986;32;33723;-68
2022/09/22 08:07:35;;;;;;;5.55;2.83;;;;;;;14.10;73.97;100883.25;5569990;32;34313;-67
2022/09/22 08:10:38;;;;;;;9.27;3.05;;;;;;;14.71;72.03;100882.25;5556163;32;33544;-68
2022/09/22 08:13:42;;;;;;;9.45;2.80;;;;;;;16.19;65.66;100881.00;5555783;32;32936;-68
2022/09/22 08:16:46;;;;;;;5.93;2.78;;;;;;;17.64;61.44;100882.78;5543104;32;32797;-68
2022/09/22 08:19:48;;;;;;;5.15;2.47;;;;;;;20.02;53.46;100888.69;5556007;32;34102;-68
2022/09/22 08:22:52;;;;;;;4.53;2.35;;;;;;;21.63;49.85;100893.00;5542859;32;32738;-68
2022/09/22 08:25:56;;;;;;;4.95;2.20;;;;;;;22.36;45.95;100896.31;5555934;32;33997;-68
2022/09/22 08:28:58;;;;;;;4.40;2.05;;;;;;;22.52;43.36;100898.31;5569214;32;34004;-68
2022/09/22 08:32:01;;;;;;;6.30;2.12;;;;;;;22.00;44.57;100897.28;5569633;32;34555;-69
2022/09/22 08:35:05;;;;;;;4.30;2.10;;;;;;;22.28;44.07;100896.62;5549277;32;33594;-68
2022/09/22 08:38:07;;;;;;;6.30;2.20;;;;;;;24.16;40.98;100893.41;5549791;32;34003;-70
2022/09/22 08:41:26;;;;;;;5.25;2.87;;;;;;;25.35;38.45;100885.78;5549602;32;34970;-69
2022/09/22 08:45:03;;;;;;;4.32;2.35;;;;;;;26.36;35.31;100882.28;5541945;32;33813;-69
2022/09/22 08:51:52;;;;;;;3.37;1.52;;;;;;;20.74;45.77;100883.56;5549903;32;34696;-69
2022/09/22 08:55:00;;;;;;;3.85;1.55;;;;;;;19.94;46.92;100870.94;5549444;32;34067;-69
2022/09/22 08:58:10;;;;;;;2.40;1.52;;;;;;;17.94;49.54;100877.09;5535950;32;34353;-68
2022/09/22 09:01:22;;;;;;;2.72;1.45;;;;;;;17.15;51.49;100876.75;5549565;32;34704;-68
2022/09/22 09:04:53;;;;;;;4.65;2.03;;;;;;;17.05;50.35;100868.25;5549888;32;33995;-69
2022/09/22 09:08:21;;;;;;;2.55;1.60;;;;;;;16.77;53.15;100873.66;5549729;32;34046;-69
2022/09/22 09:11:23;;;;;;;2.78;1.65;;;;;;;16.72;52.82;100870.72;5548946;32;34586;-68
2022/09/22 09:14:47;;;;;;;4.70;1.67;;;;;;;16.76;54.42;100872.81;5523195;32;32739;-68
2022/09/22 09:17:57;;;;;;;2.67;1.65;;;;;;;16.80;54.72;100873.25;5550156;32;33988;-68
2022/09/22 09:21:08;;;;;;;2.33;1.77;;;;;;;17.08;52.06;100878.59;5536119;32;34549;-68
2022/09/22 09:24:18;;;;;;;3.22;1.70;;;;;;;16.86;53.45;100886.72;5549234;32;34257;-68
2022/09/22 09:27:45;;;;;;;2.30;1.45;;;;;;;16.95;53.22;100871.28;5543671;32;32351;-68
2022/09/22 09:30:50;;;;;;;3.28;1.55;;;;;;;17.58;50.84;100875.50;5549238;32;34636;-68
2022/09/22 09:34:00;;;;;;;5.95;1.75;;;;;;;17.85;49.36;100872.94;5560855;32;33933;-68
2022/09/22 09:37:12;;;;;;;3.87;1.50;;;;;;;17.13;51.44;100874.31;5568848;32;34137;-68
2022/09/22 09:40:19;;;;;;;3.45;1.70;;;;;;;16.97;52.30;100879.97;5568998;32;35314;-67
2022/09/22 09:43:23;;;;;;;4.20;1.75;;;;;;;16.02;56.90;100868.91;5569019;32;33847;-69
2022/09/22 09:46:38;;;;;;;3.72;1.77;;;;;;;15.97;56.81;100874.84;5554980;32;32580;-68
2022/09/22 09:49:42;;;;;;;2.78;1.77;;;;;;;15.87;57.96;100874.31;5568520;32;35330;-68
2022/09/22 09:52:45;;;;;;;4.20;1.70;;;;;;;15.76;58.95;100872.13;5569028;32;34055;-70
2022/09/22 09:55:49;;;;;;;1.77;1.58;;;;;;;15.60;57.55;100864.31;5555175;32;34357;-68
2022/09/22 10:02:22;;;;;;;2.22;1.30;;;;;;;15.44;56.42;100880.56;5568985;32;33983;-68
2022/09/22 10:05:26;;;;;;;3.58;1.65;;;;;;;15.46;56.12;100873.19;5569802;32;33921;-68
2022/09/22 10:08:43;;;;;;;4.30;1.70;;;;;;;15.14;59.56;100872.59;5555525;32;33980;-69
2022/09/22 10:11:56;;;;;;;3.53;1.58;;;;;;;15.22;58.90;100867.13;5568943;32;35103;-68
2022/09/22 10:15:00;;;;;;;5.78;1.70;;;;;;;15.27;58.27;100868.41;5568585;32;33997;-68
2022/09/22 10:18:22;;;;;;;5.87;1.95;;;;;;;15.50;57.00;100863.75;5568688;32;34619;-68
2022/09/22 10:21:27;;;;;;;2.22;1.67;;;;;;;15.72;57.52;100860.16;5568277;32;34281;-68
2022/09/22 10:24:31;;;;;;;3.95;1.60;;;;;;;16.00;56.53;100861.06;5554796;32;33330;-68
2022/09/22 10:27:34;;;;;;;3.47;1.58;;;;;;;15.98;54.95;100860.41;5568256;32;34427;-68
2022/09/22 10:30:38;;;;;;;3.70;1.73;;;;;;;16.37;54.47;100869.81;5568108;32;34061;-66
2022/09/22 10:33:53;;;;;;;4.65;1.50;;;;;;;16.50;53.10;100856.56;5567850;32;34261;-68
2022/09/22 10:36:58;;;;;;;4.85;1.98;;;;;;;16.73;52.27;100865.19;5567919;32;35204;-69
2022/09/22 10:40:02;;;;;;;4.57;1.60;;;;;;;16.93;50.35;100865.31;5568132;32;33986;-69
2022/09/22 10:43:17;;;;;;;3.08;1.62;;;;;;;16.99;50.60;100855.66;5567801;32;34683;-69
2022/09/22 10:46:33;;;;;;;2.22;1.40;;;;;;;17.34;50.18;100855.41;5554563;32;33020;-69
2022/09/22 10:49:39;;;;;;;2.08;1.10;;;;;;;17.13;49.82;100854.72;5568174;32;32905;-67
2022/09/22 10:52:47;;;;;;;4.07;1.50;;;;;;;19.52;44.19;100853.56;5568148;32;34403;-68
2022/09/22 10:56:08;;;;;;;1.57;1.30;;;;;;;22.47;36.85;100854.13;5568267;32;34708;-68
2022/09/22 10:59:49;;;;;;;3.50;1.40;;;;;;;24.35;33.38;100854.19;5554180;32;35044;-69
2022/09/22 11:03:29;;;;;;;1.50;1.17;;;;;;;22.76;36.03;100849.69;5541464;32;34068;-68
2022/09/22 11:14:24;;;;;;;1.48;1.10;;;;;;;24.59;31.94;100833.94;5554033;32;32876;-70
2022/09/22 11:17:39;;;;;;;1.50;1.10;;;;;;;27.34;28.75;100835.50;5567089;32;35183;-71
2022/09/22 11:21:02;;;;;;;2.85;1.10;;;;;;;26.51;29.34;100829.87;5553745;32;33646;-70
2022/09/22 11:24:18;;;;;;;3.70;1.20;;;;;;;27.34;28.43;100830.03;5567851;32;34101;-68
2022/09/22 11:27:32;;;;;;;2.65;1.10;;;;;;;28.68;25.44;100824.16;5567445;32;33968;-68
2022/09/22 11:30:48;;;;;;;1.50;1.00;;;;;;;25.21;30.72;100819.34;5567232;32;35295;-70
2022/09/22 11:34:13;;;;;;;1.80;1.00;;;;;;;24.39;32.12;100814.66;5567702;32;34792;-69
2022/09/22 11:37:25;;;;;;;1.40;0.80;;;;;;;23.43;32.15;100812.91;5570141;32;34215;-70
2022/09/22 11:40:53;;;;;;;1.42;0.93;;;;;;;23.76;30.53;100802.22;5556512;32;34565;-70
2022/09/22 11:44:20;;;;;;;1.10;0.95;;;;;;;23.87;31.60;100797.78;5570180;32;34041;-70
2022/09/22 11:47:28;;;;;;;1.35;0.85;;;;;;;26.26;28.20;100797.88;5569940;32;34661;-70
2022/09/22 11:50:48;;;;;;;3.58;1.20;;;;;;;25.75;29.43;100796.59;5556445;32;34457;-70
2022/09/22 11:54:18;;;;;;;2.67;1.12;;;;;;;25.75;30.89;100788.44;5570070;32;33978;-70
2022/09/22 11:57:26;;;;;;;4.85;1.20;;;;;;;28.62;26.07;100797.13;5570196;32;34584;-69
2022/09/22 12:00:38;;;;;;;4.03;1.00;;;;;;;31.78;22.15;100793.03;5569909;32;34097;-70
2022/09/22 12:04:11;;;;;;;2.80;1.10;;;;;;;28.56;25.22;100785.44;5556778;32;34054;-70
2022/09/22 12:07:23;;;;;;;3.15;1.00;;;;;;;28.41;26.50;100786.28;5556784;32;34809;-72
2022/09/22 12:10:33;;;;;;;3.17;1.10;;;;;;;30.65;23.04;100772.84;5569964;32;34272;-70
2022/09/22 12:13:42;;;;;;;1.60;1.00;;;;;;;30.35;23.89;100770.44;5569952;32;34266;-70
2022/09/22 12:16:53;;;;;;;1.45;0.98;;;;;;;33.54;20.04;100771.50;5556128;32;33842;-71
2022/09/22 12:20:11;;;;;;;0.98;0.85;;;;;;;33.52;19.49;100770.97;5570217;32;34661;-71
2022/09/22 12:23:17;;;;;;;1.23;1.00;;;;;;;33.49;19.17;100782.63;5570217;32;33969;-71
2022/09/22 12:26:32;;;;;;;3.42;1.45;;;;;;;31.59;20.60;100773.03;5556134;32;33931;-71
2022/09/22 12:29:36;;;;;;;3.00;1.77;;;;;;;34.98;19.99;100776.53;5569764;32;34808;-70
2022/09/22 12:32:41;;;;;;;4.25;1.85;;;;;;;32.34;24.06;100773.69;5555694;32;34027;-71
2022/09/22 12:35:53;;;;;;;2.62;1.67;;;;;;;24.49;35.13;100776.84;5543066;32;33141;-71
2022/09/22 12:39:10;;;;;;;4.68;1.92;;;;;;;22.91;43.22;100775.09;5570194;32;34188;-70
2022/09/22 12:42:33;;;;;;;2.92;1.52;;;;;;;21.16;48.73;100773.16;5556029;32;32643;-68
2022/09/22 12:45:41;;;;;;;4.18;1.98;;;;;;;18.38;53.29;100756.47;5568571;32;34333;-68
2022/09/22 12:48:45;;;;;;;2.70;2.00;;;;;;;17.08;62.96;100748.06;5555875;32;34159;-68
2022/09/22 12:51:49;;;;;;;3.40;2.10;;;;;;;17.06;70.02;100754.66;5569249;32;34002;-67
2022/09/22 12:55:40;;;;;;;3.15;1.95;;;;;;;16.65;70.08;100758.19;5555875;32;34717;-67
2022/09/22 12:58:43;;;;;;;5.28;2.40;;;;;;;16.21;77.26;100757.66;5542760;32;32655;-68
2022/09/22 13:02:14;;;;;;;2.40;1.83;;;;;;;16.44;74.77;100752.88;5555501;32;32649;-68
2022/09/22 13:05:27;;;;;;;4.60;2.00;;;;;;;20.50;54.56;100762.31;5555037;32;33976;-69
2022/09/22 13:08:31;;;;;;;4.32;1.98;;;;;;;24.47;41.83;100759.16;5555346;32;32399;-69
2022/09/22 13:12:11;;;;;;;5.03;2.30;;;;;;;26.52;37.78;100760.75;5569124;32;34057;-69
2022/09/22 13:15:16;;;;;;;8.13;2.03;;;;;;;25.19;38.08;100761.72;5569342;32;33946;-69
2022/09/22 13:18:36;;;;;;;6.15;3.20;;;;;;;22.56;43.47;100743.75;5542776;32;33142;-69
2022/09/22 13:21:40;;;;;;;3.95;2.50;;;;;;;22.94;45.18;100741.34;5556097;32;34310;-69
2022/09/22 13:24:45;;;;;;;5.68;2.35;;;;;;;23.66;42.45;100736.19;5555381;32;32915;-68
2022/09/22 13:28:02;;;;;;;4.68;2.15;;;;;;;21.56;46.16;100732.94;5569002;31;33932;-69
2022/09/22 13:31:15;;;;;;;7.20;2.30;;;;;;;23.61;42.36;100726.09;5529400;32;33787;-68
2022/09/22 13:34:19;;;;;;;2.65;2.10;;;;;;;24.81;38.59;100727.34;5568387;32;34395;-67
2022/09/22 13:37:23;;;;;;;5.68;2.25;;;;;;;26.97;34.41;100722.03;5568576;32;34454;-68
2022/09/22 13:40:31;;;;;;;9.68;2.40;;;;;;;28.95;31.84;100730.94;5529722;32;33715;-68
2022/09/22 13:43:37;;;;;;;4.57;2.17;;;;;;;28.88;31.37;100722.25;5555006;32;34562;-68
2022/09/22 13:46:48;;;;;;;4.53;2.17;;;;;;;29.30;30.46;100721.72;5568502;32;34765;-69
2022/09/22 13:49:54;;;;;;;3.33;1.90;;;;;;;27.79;32.41;100712.13;5568368;32;35261;-68
2022/09/22 13:52:59;;;;;;;4.50;2.12;;;;;;;25.35;35.83;100706.50;5554760;32;34545;-68
2022/09/22 13:56:02;;;;;;;5.28;2.30;;;;;;;26.99;34.18;100697.28;5568064;32;34781;-68
2022/09/22 13:59:11;;;;;;;3.72;2.10;;;;;;;28.64;30.79;100699.41;5567242;32;34597;-67
2022/09/22 14:02:21;;;;;;;4.70;2.60;;;;;;;28.22;31.01;100700.66;5568728;32;34187;-68
2022/09/22 14:05:29;;;;;;;3.72;2.25;;;;;;;30.18;27.66;100713.41;5553516;32;33335;-68
2022/09/22 14:08:32;;;;;;;4.05;2.00;;;;;;;29.06;29.30;100712.59;5568301;32;34604;-69
2022/09/22 14:11:35;;;;;;;7.68;1.90;;;;;;;28.18;29.52;100705.00;5554361;32;33036;-67
2022/09/22 14:14:39;;;;;;;3.22;1.70;;;;;;;26.01;33.55;100697.03;5528649;32;32675;-69
2022/09/22 14:17:43;;;;;;;3.12;2.10;;;;;;;23.37;38.72;100694.78;5568294;32;34693;-67
2022/09/22 14:20:47;;;;;;;5.55;2.42;;;;;;;21.26;41.19;100687.09;5567919;32;34726;-68
2022/09/22 14:23:51;;;;;;;6.87;2.45;;;;;;;19.28;46.79;100693.66;5568220;32;34626;-69
2022/09/22 14:27:02;;;;;;;3.65;2.35;;;;;;;18.64;49.21;100686.56;5567890;32;34134;-68
2022/09/22 14:30:16;;;;;;;3.12;1.80;;;;;;;18.01;52.37;100682.75;5554357;32;34210;-69
2022/09/22 14:33:24;;;;;;;5.93;2.33;;;;;;;17.53;53.26;100678.63;5566599;32;32798;-68
2022/09/22 14:36:27;;;;;;;3.15;2.17;;;;;;;17.12;53.83;100686.84;5553260;32;34144;-68
2022/09/22 14:39:32;;;;;;;3.87;1.98;;;;;;;16.94;54.33;100685.53;5567918;32;33835;-68
2022/09/22 14:42:36;;;;;;;8.05;2.45;;;;;;;16.90;57.76;100675.41;5553963;32;34061;-69
2022/09/22 14:45:55;;;;;;;3.80;2.42;;;;;;;16.89;57.63;100674.59;5566972;32;34478;-68
2022/09/22 14:49:03;;;;;;;;;;;;;;;16.77;59.18;100681.56;5554263;32;34114;-69